sensor_id;sensor_type;location;lat;lon;timestamp;temperature;humidity
37528;DHT22;23372;52.050;4.810;2022-09-29T00:01:47;7.70;99.90
37528;DHT22;23372;52.050;4.810;2022-09-29T00:04:12;7.60;99.90
37528;DHT22;23372;52.050;4.810;2022-09-29T00:06:38;7.70;99.90
37528;DHT22;23372;52.050;4.810;2022-09-29T00:09:03;7.70;99.90
37528;DHT22;23372;52.050;4.810;2022-09-29T00:11:29;7.60;99.90
37528;DHT22;23372;52.050;4.810;2022-09-29T00:13:54;7.70;99.90
37528;DHT22;23372;52.050;4.810;2022-09-29T00:16:20;7.60;99.90
37528;DHT22;23372;52.050;4.810;2022-09-29T00:18:46;7.60;99.90
37528;DHT22;23372;52.050;4.810;2022-09-29T00:21:16;7.50;99.90
37528;DHT22;23372;52.050;4.810;2022-09-29T00:23:44;7.30;99.90
37528;DHT22;23372;52.050;4.810;2022-09-29T00:28:39;7.10;99.90
37528;DHT22;23372;52.050;4.810;2022-09-29T00:31:07;7.10;99.90
37528;DHT22;23372;52.050;4.810;2022-09-29T00:33:37;7.10;99.90
37528;DHT22;23372;52.050;4.810;2022-09-29T00:36:05;7.20;99.90
37528;DHT22;23372;52.050;4.810;2022-09-29T00:38:32;7.00;99.90
37528;DHT22;23372;52.050;4.810;2022-09-29T00:40:57;7.00;99.90
37528;DHT22;23372;52.050;4.810;2022-09-29T00:46:10;7.10;99.90
37528;DHT22;23372;52.050;4.810;2022-09-29T00:48:36;7.10;99.90
37528;DHT22;23372;52.050;4.810;2022-09-29T00:51:02;7.10;99.90
37528;DHT22;23372;52.050;4.810;2022-09-29T00:53:28;7.10;99.90
37528;DHT22;23372;52.050;4.810;2022-09-29T00:56:04;7.30;99.90
37528;DHT22;23372;52.050;4.810;2022-09-29T00:58:50;7.20;99.90
37528;DHT22;23372;52.050;4.810;2022-09-29T01:01:20;7.20;99.90
37528;DHT22;23372;52.050;4.810;2022-09-29T01:03:47;7.10;99.90
37528;DHT22;23372;52.050;4.810;2022-09-29T01:06:29;7.10;99.90
37528;DHT22;23372;52.050;4.810;2022-09-29T01:09:04;7.20;99.90
37528;DHT22;23372;52.050;4.810;2022-09-29T01:11:31;7.10;99.90
37528;DHT22;23372;52.050;4.810;2022-09-29T01:13:57;7.10;99.90
37528;DHT22;23372;52.050;4.810;2022-09-29T01:16:28;7.00;99.90
37528;DHT22;23372;52.050;4.810;2022-09-29T01:18:54;6.90;99.90
37528;DHT22;23372;52.050;4.810;2022-09-29T01:30:13;6.40;99.90
37528;DHT22;23372;52.050;4.810;2022-09-29T01:38:20;6.10;99.90
37528;DHT22;23372;52.050;4.810;2022-09-29T01:40:58;6.00;99.90
37528;DHT22;23372;52.050;4.810;2022-09-29T01:43:34;6.00;99.90
37528;DHT22;23372;52.050;4.810;2022-09-29T01:46:28;6.00;99.90
37528;DHT22;23372;52.050;4.810;2022-09-29T01:48:56;6.00;99.90
37528;DHT22;23372;52.050;4.810;2022-09-29T01:51:29;5.90;99.90
37528;DHT22;23372;52.050;4.810;2022-09-29T01:53:57;6.00;99.90
37528;DHT22;23372;52.050;4.810;2022-09-29T01:56:38;5.90;99.90
37528;DHT22;23372;52.050;4.810;2022-09-29T01:59:11;5.90;99.90
37528;DHT22;23372;52.050;4.810;2022-09-29T02:01:40;6.00;99.90
37528;DHT22;23372;52.050;4.810;2022-09-29T02:04:15;6.10;99.90
37528;DHT22;23372;52.050;4.810;2022-09-29T02:07:02;6.20;99.90
37528;DHT22;23372;52.050;4.810;2022-09-29T02:09:35;6.20;99.90
37528;DHT22;23372;52.050;4.810;2022-09-29T02:12:03;6.30;99.90
37528;DHT22;23372;52.050;4.810;2022-09-29T02:14:37;6.30;99.90
37528;DHT22;23372;52.050;4.810;2022-09-29T02:17:10;6.30;99.90
37528;DHT22;23372;52.050;4.810;2022-09-29T02:19:38;6.20;99.90
37528;DHT22;23372;52.050;4.810;2022-09-29T02:22:05;6.20;99.90
37528;DHT22;23372;52.050;4.810;2022-09-29T02:24:30;6.30;99.90
37528;DHT22;23372;52.050;4.810;2022-09-29T02:26:56;6.30;99.90
37528;DHT22;23372;52.050;4.810;2022-09-29T02:29:22;6.30;99.90
37528;DHT22;23372;52.050;4.810;2022-09-29T02:31:48;6.20;99.90
37528;DHT22;23372;52.050;4.810;2022-09-29T02:34:16;6.20;99.90
37528;DHT22;23372;52.050;4.810;2022-09-29T02:39:51;6.30;99.90
37528;DHT22;23372;52.050;4.810;2022-09-29T02:42:24;6.30;99.90
37528;DHT22;23372;52.050;4.810;2022-09-29T02:47:29;6.30;99.90
37528;DHT22;23372;52.050;4.810;2022-09-29T02:50:33;6.40;99.90
37528;DHT22;23372;52.050;4.810;2022-09-29T02:57:10;6.30;99.90
37528;DHT22;23372;52.050;4.810;2022-09-29T02:59:41;6.30;99.90
37528;DHT22;23372;52.050;4.810;2022-09-29T03:01:59;6.30;99.90
37528;DHT22;23372;52.050;4.810;2022-09-29T03:04:26;6.40;99.90
37528;DHT22;23372;52.050;4.810;2022-09-29T03:06:52;6.50;99.90
37528;DHT22;23372;52.050;4.810;2022-09-29T03:09:18;6.50;99.90
37528;DHT22;23372;52.050;4.810;2022-09-29T03:11:44;6.50;99.90
37528;DHT22;23372;52.050;4.810;2022-09-29T03:14:10;6.40;99.90
37528;DHT22;23372;52.050;4.810;2022-09-29T03:16:36;6.40;99.90
37528;DHT22;23372;52.050;4.810;2022-09-29T03:19:02;6.40;99.90
37528;DHT22;23372;52.050;4.810;2022-09-29T03:21:29;6.40;99.90
37528;DHT22;23372;52.050;4.810;2022-09-29T03:23:55;6.40;99.90
37528;DHT22;23372;52.050;4.810;2022-09-29T03:26:20;6.40;99.90
37528;DHT22;23372;52.050;4.810;2022-09-29T03:28:48;6.40;99.90
37528;DHT22;23372;52.050;4.810;2022-09-29T03:31:14;6.30;99.90
37528;DHT22;23372;52.050;4.810;2022-09-29T03:33:39;6.30;99.90
37528;DHT22;23372;52.050;4.810;2022-09-29T03:36:06;6.30;99.90
37528;DHT22;23372;52.050;4.810;2022-09-29T03:38:33;6.30;99.90
37528;DHT22;23372;52.050;4.810;2022-09-29T03:40:58;6.40;99.90
37528;DHT22;23372;52.050;4.810;2022-09-29T03:43:24;6.30;99.90
37528;DHT22;23372;52.050;4.810;2022-09-29T03:45:50;6.30;99.90
37528;DHT22;23372;52.050;4.810;2022-09-29T03:48:18;6.30;99.90
37528;DHT22;23372;52.050;4.810;2022-09-29T03:50:44;6.30;99.90
37528;DHT22;23372;52.050;4.810;2022-09-29T03:53:10;6.10;99.90
37528;DHT22;23372;52.050;4.810;2022-09-29T03:55:35;6.00;99.90
37528;DHT22;23372;52.050;4.810;2022-09-29T03:58:01;5.90;99.90
37528;DHT22;23372;52.050;4.810;2022-09-29T04:00:26;5.80;99.90
37528;DHT22;23372;52.050;4.810;2022-09-29T04:02:55;5.80;99.90
37528;DHT22;23372;52.050;4.810;2022-09-29T04:05:21;5.80;99.90
37528;DHT22;23372;52.050;4.810;2022-09-29T04:07:47;5.80;99.90
37528;DHT22;23372;52.050;4.810;2022-09-29T04:10:13;5.90;99.90
37528;DHT22;23372;52.050;4.810;2022-09-29T04:12:38;5.90;99.90
37528;DHT22;23372;52.050;4.810;2022-09-29T04:15:04;5.80;99.90
37528;DHT22;23372;52.050;4.810;2022-09-29T04:17:30;5.90;99.90
37528;DHT22;23372;52.050;4.810;2022-09-29T04:19:55;6.00;99.90
37528;DHT22;23372;52.050;4.810;2022-09-29T04:22:21;5.90;99.90
37528;DHT22;23372;52.050;4.810;2022-09-29T04:24:46;5.80;99.90
37528;DHT22;23372;52.050;4.810;2022-09-29T04:27:13;5.70;99.90
37528;DHT22;23372;52.050;4.810;2022-09-29T04:29:38;5.70;99.90
37528;DHT22;23372;52.050;4.810;2022-09-29T04:32:04;5.70;99.90
37528;DHT22;23372;52.050;4.810;2022-09-29T04:34:31;5.70;99.90
37528;DHT22;23372;52.050;4.810;2022-09-29T04:36:56;5.70;99.90
37528;DHT22;23372;52.050;4.810;2022-09-29T04:39:22;5.70;99.90
37528;DHT22;23372;52.050;4.810;2022-09-29T04:41:47;5.70;99.90
37528;DHT22;23372;52.050;4.810;2022-09-29T04:44:13;5.60;99.90
37528;DHT22;23372;52.050;4.810;2022-09-29T04:46:38;5.60;99.90
37528;DHT22;23372;52.050;4.810;2022-09-29T04:49:04;5.60;99.90
37528;DHT22;23372;52.050;4.810;2022-09-29T04:51:29;5.50;99.90
37528;DHT22;23372;52.050;4.810;2022-09-29T04:53:57;5.60;99.90
37528;DHT22;23372;52.050;4.810;2022-09-29T04:56:23;5.50;99.90
37528;DHT22;23372;52.050;4.810;2022-09-29T04:58:49;5.50;99.90
37528;DHT22;23372;52.050;4.810;2022-09-29T05:01:14;5.50;99.90
37528;DHT22;23372;52.050;4.810;2022-09-29T05:03:40;5.50;99.90
37528;DHT22;23372;52.050;4.810;2022-09-29T05:06:07;5.40;99.90
37528;DHT22;23372;52.050;4.810;2022-09-29T05:08:33;5.50;99.90
37528;DHT22;23372;52.050;4.810;2022-09-29T05:11:06;5.40;99.90
37528;DHT22;23372;52.050;4.810;2022-09-29T05:13:32;5.50;99.90
37528;DHT22;23372;52.050;4.810;2022-09-29T05:15:57;5.50;99.90
37528;DHT22;23372;52.050;4.810;2022-09-29T05:18:23;5.50;99.90
37528;DHT22;23372;52.050;4.810;2022-09-29T05:20:49;5.60;99.90
37528;DHT22;23372;52.050;4.810;2022-09-29T05:23:15;5.60;99.90
37528;DHT22;23372;52.050;4.810;2022-09-29T05:25:40;5.50;99.90
37528;DHT22;23372;52.050;4.810;2022-09-29T05:28:08;5.50;99.90
37528;DHT22;23372;52.050;4.810;2022-09-29T05:30:35;5.50;99.90
37528;DHT22;23372;52.050;4.810;2022-09-29T05:33:00;5.50;99.90
37528;DHT22;23372;52.050;4.810;2022-09-29T05:35:26;5.50;99.90
37528;DHT22;23372;52.050;4.810;2022-09-29T05:37:51;5.40;99.90
37528;DHT22;23372;52.050;4.810;2022-09-29T05:40:17;5.50;99.90
37528;DHT22;23372;52.050;4.810;2022-09-29T05:42:44;5.40;99.90
37528;DHT22;23372;52.050;4.810;2022-09-29T05:45:09;5.50;99.90
37528;DHT22;23372;52.050;4.810;2022-09-29T05:47:39;5.40;99.90
37528;DHT22;23372;52.050;4.810;2022-09-29T05:50:05;5.50;99.90
37528;DHT22;23372;52.050;4.810;2022-09-29T05:52:31;5.40;99.90
37528;DHT22;23372;52.050;4.810;2022-09-29T05:54:56;5.30;99.90
37528;DHT22;23372;52.050;4.810;2022-09-29T05:57:22;5.30;99.90
37528;DHT22;23372;52.050;4.810;2022-09-29T05:59:47;5.40;99.90
37528;DHT22;23372;52.050;4.810;2022-09-29T06:02:13;5.50;99.90
37528;DHT22;23372;52.050;4.810;2022-09-29T06:04:38;5.50;99.90
37528;DHT22;23372;52.050;4.810;2022-09-29T06:07:04;5.60;99.90
37528;DHT22;23372;52.050;4.810;2022-09-29T06:09:29;5.70;99.90
37528;DHT22;23372;52.050;4.810;2022-09-29T06:11:55;5.60;99.90
37528;DHT22;23372;52.050;4.810;2022-09-29T06:14:20;5.70;99.90
37528;DHT22;23372;52.050;4.810;2022-09-29T06:16:46;5.80;99.90
37528;DHT22;23372;52.050;4.810;2022-09-29T06:19:11;5.80;99.90
37528;DHT22;23372;52.050;4.810;2022-09-29T06:21:38;5.80;99.90
37528;DHT22;23372;52.050;4.810;2022-09-29T06:24:04;5.80;99.90
37528;DHT22;23372;52.050;4.810;2022-09-29T06:26:31;5.80;99.90
37528;DHT22;23372;52.050;4.810;2022-09-29T06:28:57;5.70;99.90
37528;DHT22;23372;52.050;4.810;2022-09-29T06:31:24;5.80;99.90
37528;DHT22;23372;52.050;4.810;2022-09-29T06:33:50;5.80;99.90
37528;DHT22;23372;52.050;4.810;2022-09-29T06:39:00;5.90;99.90
37528;DHT22;23372;52.050;4.810;2022-09-29T06:41:26;5.90;99.90
37528;DHT22;23372;52.050;4.810;2022-09-29T06:43:52;5.90;99.90
37528;DHT22;23372;52.050;4.810;2022-09-29T06:46:18;6.00;99.90
37528;DHT22;23372;52.050;4.810;2022-09-29T06:48:44;6.10;99.90
37528;DHT22;23372;52.050;4.810;2022-09-29T06:51:10;6.20;99.90
37528;DHT22;23372;52.050;4.810;2022-09-29T06:53:36;6.30;99.90
37528;DHT22;23372;52.050;4.810;2022-09-29T06:56:01;6.20;99.90
37528;DHT22;23372;52.050;4.810;2022-09-29T06:58:27;6.30;99.90
37528;DHT22;23372;52.050;4.810;2022-09-29T07:00:53;6.40;99.90
37528;DHT22;23372;52.050;4.810;2022-09-29T07:03:20;6.40;99.90
37528;DHT22;23372;52.050;4.810;2022-09-29T07:05:46;6.40;99.90
37528;DHT22;23372;52.050;4.810;2022-09-29T07:08:11;6.50;99.90
37528;DHT22;23372;52.050;4.810;2022-09-29T07:10:37;6.60;99.90
37528;DHT22;23372;52.050;4.810;2022-09-29T07:13:03;6.70;99.90
37528;DHT22;23372;52.050;4.810;2022-09-29T07:15:29;6.70;99.90
37528;DHT22;23372;52.050;4.810;2022-09-29T07:17:58;6.90;99.90
37528;DHT22;23372;52.050;4.810;2022-09-29T07:20:25;7.00;99.90
37528;DHT22;23372;52.050;4.810;2022-09-29T07:22:51;7.10;99.90
37528;DHT22;23372;52.050;4.810;2022-09-29T07:25:17;7.10;99.90
37528;DHT22;23372;52.050;4.810;2022-09-29T07:27:42;7.30;99.90
37528;DHT22;23372;52.050;4.810;2022-09-29T07:30:09;7.30;99.90
37528;DHT22;23372;52.050;4.810;2022-09-29T07:32:35;7.40;99.90
37528;DHT22;23372;52.050;4.810;2022-09-29T07:35:00;7.60;99.90
37528;DHT22;23372;52.050;4.810;2022-09-29T07:37:26;7.70;99.90
37528;DHT22;23372;52.050;4.810;2022-09-29T07:39:52;7.70;99.90
37528;DHT22;23372;52.050;4.810;2022-09-29T07:42:18;7.80;99.90
37528;DHT22;23372;52.050;4.810;2022-09-29T07:44:45;7.90;99.90
37528;DHT22;23372;52.050;4.810;2022-09-29T07:47:11;8.00;99.90
37528;DHT22;23372;52.050;4.810;2022-09-29T07:49:38;8.20;99.90
37528;DHT22;23372;52.050;4.810;2022-09-29T07:52:04;8.20;99.90
37528;DHT22;23372;52.050;4.810;2022-09-29T07:54:29;8.30;99.90
37528;DHT22;23372;52.050;4.810;2022-09-29T07:56:55;8.40;99.90
37528;DHT22;23372;52.050;4.810;2022-09-29T07:59:21;8.50;99.90
37528;DHT22;23372;52.050;4.810;2022-09-29T08:01:46;8.70;99.90
37528;DHT22;23372;52.050;4.810;2022-09-29T08:04:12;8.70;99.90
37528;DHT22;23372;52.050;4.810;2022-09-29T08:06:38;8.80;99.90
37528;DHT22;23372;52.050;4.810;2022-09-29T08:09:05;8.80;99.90
37528;DHT22;23372;52.050;4.810;2022-09-29T08:11:31;8.90;99.90
37528;DHT22;23372;52.050;4.810;2022-09-29T08:13:57;9.10;99.90
37528;DHT22;23372;52.050;4.810;2022-09-29T08:16:23;9.20;99.90
37528;DHT22;23372;52.050;4.810;2022-09-29T08:18:49;9.20;99.90
37528;DHT22;23372;52.050;4.810;2022-09-29T08:21:14;9.30;99.90
37528;DHT22;23372;52.050;4.810;2022-09-29T08:23:41;9.50;99.90
37528;DHT22;23372;52.050;4.810;2022-09-29T08:26:13;9.40;99.90
37528;DHT22;23372;52.050;4.810;2022-09-29T08:28:39;9.60;99.90
37528;DHT22;23372;52.050;4.810;2022-09-29T08:31:13;9.70;99.90
37528;DHT22;23372;52.050;4.810;2022-09-29T08:33:39;9.70;99.90
37528;DHT22;23372;52.050;4.810;2022-09-29T08:36:05;9.90;99.90
37528;DHT22;23372;52.050;4.810;2022-09-29T08:38:42;10.00;99.90
37528;DHT22;23372;52.050;4.810;2022-09-29T08:43:42;10.10;99.90
37528;DHT22;23372;52.050;4.810;2022-09-29T08:48:41;10.60;99.90
37528;DHT22;23372;52.050;4.810;2022-09-29T08:51:32;10.60;99.90
37528;DHT22;23372;52.050;4.810;2022-09-29T08:54:10;10.50;99.90
37528;DHT22;23372;52.050;4.810;2022-09-29T08:56:39;10.60;99.90
37528;DHT22;23372;52.050;4.810;2022-09-29T08:59:08;10.60;99.90
37528;DHT22;23372;52.050;4.810;2022-09-29T09:02:01;10.60;99.90
37528;DHT22;23372;52.050;4.810;2022-09-29T09:07:17;10.90;99.90
37528;DHT22;23372;52.050;4.810;2022-09-29T09:12:40;11.00;99.90
37528;DHT22;23372;52.050;4.810;2022-09-29T09:15:29;11.10;99.90
37528;DHT22;23372;52.050;4.810;2022-09-29T09:21:17;11.50;99.90
37528;DHT22;23372;52.050;4.810;2022-09-29T09:26:12;12.00;99.90
37528;DHT22;23372;52.050;4.810;2022-09-29T09:28:43;12.00;99.90
37528;DHT22;23372;52.050;4.810;2022-09-29T09:31:26;12.30;99.90
37528;DHT22;23372;52.050;4.810;2022-09-29T09:34:04;12.40;99.90
37528;DHT22;23372;52.050;4.810;2022-09-29T09:36:44;12.60;99.90
37528;DHT22;23372;52.050;4.810;2022-09-29T09:39:41;12.60;99.90
37528;DHT22;23372;52.050;4.810;2022-09-29T09:42:19;12.80;99.90
37528;DHT22;23372;52.050;4.810;2022-09-29T09:44:49;12.90;99.90
37528;DHT22;23372;52.050;4.810;2022-09-29T09:47:28;13.00;99.90
37528;DHT22;23372;52.050;4.810;2022-09-29T09:50:13;13.20;99.90
37528;DHT22;23372;52.050;4.810;2022-09-29T09:52:46;13.40;99.90
37528;DHT22;23372;52.050;4.810;2022-09-29T09:55:21;13.60;99.90
37528;DHT22;23372;52.050;4.810;2022-09-29T10:00:41;13.80;99.90
37528;DHT22;23372;52.050;4.810;2022-09-29T10:03:07;14.00;99.90
37528;DHT22;23372;52.050;4.810;2022-09-29T10:05:36;14.00;99.90
37528;DHT22;23372;52.050;4.810;2022-09-29T10:08:05;14.20;99.90
37528;DHT22;23372;52.050;4.810;2022-09-29T10:10:32;14.40;99.90
37528;DHT22;23372;52.050;4.810;2022-09-29T10:13:02;14.40;99.90
37528;DHT22;23372;52.050;4.810;2022-09-29T10:18:04;14.60;99.90
37528;DHT22;23372;52.050;4.810;2022-09-29T10:20:36;14.70;99.90
37528;DHT22;23372;52.050;4.810;2022-09-29T10:23:18;14.40;99.90
37528;DHT22;23372;52.050;4.810;2022-09-29T10:25:58;14.70;99.90
37528;DHT22;23372;52.050;4.810;2022-09-29T10:28:28;14.70;99.90
37528;DHT22;23372;52.050;4.810;2022-09-29T10:31:00;15.10;99.90
37528;DHT22;23372;52.050;4.810;2022-09-29T10:33:27;15.40;99.90
37528;DHT22;23372;52.050;4.810;2022-09-29T10:36:05;15.40;99.90
37528;DHT22;23372;52.050;4.810;2022-09-29T10:38:32;15.40;99.90
37528;DHT22;23372;52.050;4.810;2022-09-29T10:41:01;15.60;99.90
37528;DHT22;23372;52.050;4.810;2022-09-29T10:43:37;15.70;99.90
37528;DHT22;23372;52.050;4.810;2022-09-29T10:46:04;15.70;99.90
37528;DHT22;23372;52.050;4.810;2022-09-29T10:48:29;15.80;99.90
37528;DHT22;23372;52.050;4.810;2022-09-29T10:51:02;15.30;99.90
37528;DHT22;23372;52.050;4.810;2022-09-29T10:53:37;15.70;99.90
37528;DHT22;23372;52.050;4.810;2022-09-29T10:56:18;15.80;99.90
37528;DHT22;23372;52.050;4.810;2022-09-29T10:58:54;16.10;99.90
37528;DHT22;23372;52.050;4.810;2022-09-29T11:01:21;16.20;99.90
37528;DHT22;23372;52.050;4.810;2022-09-29T11:03:51;15.50;99.90
37528;DHT22;23372;52.050;4.810;2022-09-29T11:06:26;15.80;99.90
37528;DHT22;23372;52.050;4.810;2022-09-29T11:11:23;16.40;99.90
37528;DHT22;23372;52.050;4.810;2022-09-29T11:13:50;16.70;99.90
37528;DHT22;23372;52.050;4.810;2022-09-29T11:16:31;16.70;99.90
37528;DHT22;23372;52.050;4.810;2022-09-29T11:19:08;16.90;99.90
37528;DHT22;23372;52.050;4.810;2022-09-29T11:27:11;16.90;99.90
37528;DHT22;23372;52.050;4.810;2022-09-29T11:30:06;17.10;99.90
37528;DHT22;23372;52.050;4.810;2022-09-29T11:38:07;17.10;99.90
37528;DHT22;23372;52.050;4.810;2022-09-29T11:40:57;16.60;99.90
37528;DHT22;23372;52.050;4.810;2022-09-29T11:43:33;16.60;99.90
37528;DHT22;23372;52.050;4.810;2022-09-29T11:51:46;17.00;99.90
37528;DHT22;23372;52.050;4.810;2022-09-29T12:00:13;17.20;99.90
37528;DHT22;23372;52.050;4.810;2022-09-29T12:16:38;17.30;99.90
37528;DHT22;23372;52.050;4.810;2022-09-29T12:19:10;17.30;99.90
37528;DHT22;23372;52.050;4.810;2022-09-29T12:21:47;16.90;99.90
37528;DHT22;23372;52.050;4.810;2022-09-29T12:27:28;16.80;99.90
37528;DHT22;23372;52.050;4.810;2022-09-29T12:30:12;16.90;99.90
37528;DHT22;23372;52.050;4.810;2022-09-29T12:32:50;17.00;99.90
37528;DHT22;23372;52.050;4.810;2022-09-29T12:35:27;16.80;99.90
37528;DHT22;23372;52.050;4.810;2022-09-29T12:43:24;16.90;99.90
37528;DHT22;23372;52.050;4.810;2022-09-29T12:46:01;16.80;99.90
37528;DHT22;23372;52.050;4.810;2022-09-29T12:51:19;16.30;99.90
37528;DHT22;23372;52.050;4.810;2022-09-29T12:54:24;16.20;99.90
37528;DHT22;23372;52.050;4.810;2022-09-29T12:56:57;16.20;99.90
37528;DHT22;23372;52.050;4.810;2022-09-29T13:11:51;15.90;99.90
37528;DHT22;23372;52.050;4.810;2022-09-29T13:26:32;16.10;99.90
37528;DHT22;23372;52.050;4.810;2022-09-29T13:29:04;16.30;99.90
37528;DHT22;23372;52.050;4.810;2022-09-29T13:31:37;16.30;99.90
37528;DHT22;23372;52.050;4.810;2022-09-29T13:34:04;16.20;99.90
37528;DHT22;23372;52.050;4.810;2022-09-29T13:36:33;16.20;99.90
37528;DHT22;23372;52.050;4.810;2022-09-29T13:39:04;16.20;99.90
37528;DHT22;23372;52.050;4.810;2022-09-29T13:41:32;16.10;99.90
37528;DHT22;23372;52.050;4.810;2022-09-29T13:44:20;16.00;99.90
37528;DHT22;23372;52.050;4.810;2022-09-29T13:46:48;16.00;99.90
37528;DHT22;23372;52.050;4.810;2022-09-29T13:49:26;15.90;99.90
37528;DHT22;23372;52.050;4.810;2022-09-29T13:54:36;15.80;99.90
37528;DHT22;23372;52.050;4.810;2022-09-29T13:59:41;15.70;99.90
37528;DHT22;23372;52.050;4.810;2022-09-29T14:02:35;15.60;99.90
37528;DHT22;23372;52.050;4.810;2022-09-29T14:05:51;15.50;99.90
37528;DHT22;23372;52.050;4.810;2022-09-29T14:08:10;15.40;99.90
37528;DHT22;23372;52.050;4.810;2022-09-29T14:13:10;15.30;99.90
37528;DHT22;23372;52.050;4.810;2022-09-29T14:15:51;15.10;99.90
37528;DHT22;23372;52.050;4.810;2022-09-29T14:18:46;15.20;99.90
37528;DHT22;23372;52.050;4.810;2022-09-29T14:32:56;15.10;99.90
37528;DHT22;23372;52.050;4.810;2022-09-29T14:38:18;15.30;99.90
37528;DHT22;23372;52.050;4.810;2022-09-29T14:52:19;16.20;99.90
37528;DHT22;23372;52.050;4.810;2022-09-29T14:55:15;16.30;99.90
37528;DHT22;23372;52.050;4.810;2022-09-29T15:06:16;16.40;99.90
37528;DHT22;23372;52.050;4.810;2022-09-29T15:08:54;16.50;99.90
37528;DHT22;23372;52.050;4.810;2022-09-29T15:11:29;16.60;99.90
37528;DHT22;23372;52.050;4.810;2022-09-29T15:13:56;16.80;99.90
37528;DHT22;23372;52.050;4.810;2022-09-29T15:24:59;16.90;99.90
37528;DHT22;23372;52.050;4.810;2022-09-29T15:27:27;16.80;99.90
37528;DHT22;23372;52.050;4.810;2022-09-29T15:29:54;16.80;99.90
37528;DHT22;23372;52.050;4.810;2022-09-29T15:32:22;16.40;99.90
37528;DHT22;23372;52.050;4.810;2022-09-29T15:34:50;16.50;99.90
37528;DHT22;23372;52.050;4.810;2022-09-29T15:37:16;16.60;99.90
37528;DHT22;23372;52.050;4.810;2022-09-29T15:39:47;16.70;99.90
37528;DHT22;23372;52.050;4.810;2022-09-29T15:42:19;16.60;99.90
37528;DHT22;23372;52.050;4.810;2022-09-29T15:44:53;16.50;99.90
37528;DHT22;23372;52.050;4.810;2022-09-29T15:47:39;16.50;99.90
37528;DHT22;23372;52.050;4.810;2022-09-29T15:50:22;16.40;99.90
37528;DHT22;23372;52.050;4.810;2022-09-29T15:52:48;16.30;99.90
37528;DHT22;23372;52.050;4.810;2022-09-29T15:55:17;16.20;99.90
37528;DHT22;23372;52.050;4.810;2022-09-29T15:57:45;16.20;99.90
37528;DHT22;23372;52.050;4.810;2022-09-29T16:03:13;15.80;99.90
37528;DHT22;23372;52.050;4.810;2022-09-29T16:05:53;15.50;99.90
37528;DHT22;23372;52.050;4.810;2022-09-29T16:08:22;15.10;99.90
37528;DHT22;23372;52.050;4.810;2022-09-29T16:10:55;14.80;99.90
37528;DHT22;23372;52.050;4.810;2022-09-29T16:13:26;14.50;99.90
37528;DHT22;23372;52.050;4.810;2022-09-29T16:16:00;14.30;99.90
37528;DHT22;23372;52.050;4.810;2022-09-29T16:18:42;14.10;99.90
37528;DHT22;23372;52.050;4.810;2022-09-29T16:21:15;14.10;99.90
37528;DHT22;23372;52.050;4.810;2022-09-29T16:26:19;14.00;99.90
37528;DHT22;23372;52.050;4.810;2022-09-29T16:29:04;14.00;99.90
37528;DHT22;23372;52.050;4.810;2022-09-29T16:31:32;13.90;99.90
37528;DHT22;23372;52.050;4.810;2022-09-29T16:33:59;13.80;99.90
37528;DHT22;23372;52.050;4.810;2022-09-29T16:36:27;13.70;99.90
37528;DHT22;23372;52.050;4.810;2022-09-29T16:38:56;13.70;99.90
37528;DHT22;23372;52.050;4.810;2022-09-29T16:41:35;13.50;99.90
37528;DHT22;23372;52.050;4.810;2022-09-29T16:44:14;13.50;99.90
37528;DHT22;23372;52.050;4.810;2022-09-29T16:47:13;13.40;99.90
37528;DHT22;23372;52.050;4.810;2022-09-29T16:49:45;13.30;99.90
37528;DHT22;23372;52.050;4.810;2022-09-29T16:52:32;13.20;99.90
37528;DHT22;23372;52.050;4.810;2022-09-29T16:55:24;13.10;99.90
37528;DHT22;23372;52.050;4.810;2022-09-29T16:58:03;13.00;99.90
37528;DHT22;23372;52.050;4.810;2022-09-29T17:00:29;12.90;99.90
37528;DHT22;23372;52.050;4.810;2022-09-29T17:02:56;12.80;99.90
37528;DHT22;23372;52.050;4.810;2022-09-29T17:05:23;12.80;99.90
37528;DHT22;23372;52.050;4.810;2022-09-29T17:07:50;12.70;99.90
37528;DHT22;23372;52.050;4.810;2022-09-29T17:10:20;12.60;99.90
37528;DHT22;23372;52.050;4.810;2022-09-29T17:12:45;12.60;99.90
37528;DHT22;23372;52.050;4.810;2022-09-29T17:15:15;12.50;99.90
37528;DHT22;23372;52.050;4.810;2022-09-29T17:17:43;12.40;99.90
37528;DHT22;23372;52.050;4.810;2022-09-29T17:20:20;12.40;99.90
37528;DHT22;23372;52.050;4.810;2022-09-29T17:22:46;12.30;99.90
37528;DHT22;23372;52.050;4.810;2022-09-29T17:25:13;12.20;99.90
37528;DHT22;23372;52.050;4.810;2022-09-29T17:27:39;12.20;99.90
37528;DHT22;23372;52.050;4.810;2022-09-29T17:30:25;12.10;99.90
37528;DHT22;23372;52.050;4.810;2022-09-29T17:32:54;12.00;99.90
37528;DHT22;23372;52.050;4.810;2022-09-29T17:35:23;12.00;99.90
37528;DHT22;23372;52.050;4.810;2022-09-29T17:37:49;11.90;99.90
37528;DHT22;23372;52.050;4.810;2022-09-29T17:40:36;11.80;99.90
37528;DHT22;23372;52.050;4.810;2022-09-29T17:43:06;11.80;99.90
37528;DHT22;23372;52.050;4.810;2022-09-29T17:45:31;11.70;99.90
37528;DHT22;23372;52.050;4.810;2022-09-29T17:48:00;11.70;99.90
37528;DHT22;23372;52.050;4.810;2022-09-29T17:50:45;11.70;99.90
37528;DHT22;23372;52.050;4.810;2022-09-29T17:53:11;11.70;99.90
37528;DHT22;23372;52.050;4.810;2022-09-29T17:55:38;11.60;99.90
37528;DHT22;23372;52.050;4.810;2022-09-29T17:58:04;11.50;99.90
37528;DHT22;23372;52.050;4.810;2022-09-29T18:00:35;11.50;99.90
37528;DHT22;23372;52.050;4.810;2022-09-29T18:03:06;11.40;99.90
37528;DHT22;23372;52.050;4.810;2022-09-29T18:05:35;11.30;99.90
37528;DHT22;23372;52.050;4.810;2022-09-29T18:08:01;11.30;99.90
37528;DHT22;23372;52.050;4.810;2022-09-29T18:10:48;11.30;99.90
37528;DHT22;23372;52.050;4.810;2022-09-29T18:13:15;11.30;99.90
37528;DHT22;23372;52.050;4.810;2022-09-29T18:15:40;11.20;99.90
37528;DHT22;23372;52.050;4.810;2022-09-29T18:18:10;11.20;99.90
37528;DHT22;23372;52.050;4.810;2022-09-29T18:20:37;11.10;99.90
37528;DHT22;23372;52.050;4.810;2022-09-29T18:23:04;11.20;99.90
37528;DHT22;23372;52.050;4.810;2022-09-29T18:25:31;11.10;99.90
37528;DHT22;23372;52.050;4.810;2022-09-29T18:27:57;11.10;99.90
37528;DHT22;23372;52.050;4.810;2022-09-29T18:30:27;11.10;99.90
37528;DHT22;23372;52.050;4.810;2022-09-29T18:32:55;11.10;99.90
37528;DHT22;23372;52.050;4.810;2022-09-29T18:35:27;11.00;99.90
37528;DHT22;23372;52.050;4.810;2022-09-29T18:37:53;11.00;99.90
37528;DHT22;23372;52.050;4.810;2022-09-29T18:40:19;11.00;99.90
37528;DHT22;23372;52.050;4.810;2022-09-29T18:42:49;10.80;99.90
37528;DHT22;23372;52.050;4.810;2022-09-29T18:45:21;10.90;99.90
37528;DHT22;23372;52.050;4.810;2022-09-29T18:47:54;10.90;99.90
37528;DHT22;23372;52.050;4.810;2022-09-29T18:50:25;10.90;99.90
37528;DHT22;23372;52.050;4.810;2022-09-29T18:52:52;10.80;99.90
37528;DHT22;23372;52.050;4.810;2022-09-29T18:55:20;10.80;99.90
37528;DHT22;23372;52.050;4.810;2022-09-29T18:57:47;10.70;99.90
37528;DHT22;23372;52.050;4.810;2022-09-29T19:00:15;10.70;99.90
37528;DHT22;23372;52.050;4.810;2022-09-29T19:02:42;10.70;99.90